createdAt,value
2023-06-02T00:01:36.305Z,100393.22
2023-06-02T00:04:05.431Z,100388.22
2023-06-02T00:06:36.012Z,100398.13
2023-06-02T00:09:06.926Z,100394.94
2023-06-02T00:11:37.103Z,100389.19
2023-06-02T00:14:08.146Z,100395.63
2023-06-02T00:16:45.456Z,100396.97
2023-06-02T00:19:14.831Z,100392.75
2023-06-02T00:21:47.237Z,100404.31
2023-06-02T00:24:16.730Z,100401.06
2023-06-02T00:26:45.033Z,100400.28
2023-06-02T00:29:13.796Z,100405.88
2023-06-02T00:31:42.549Z,100404.25
2023-06-02T00:34:11.406Z,100412.44
2023-06-02T00:36:40.135Z,100411.75
2023-06-02T00:39:09.933Z,100409.28
2023-06-02T00:41:41.525Z,100412.22
2023-06-02T00:44:10.176Z,100410.47
2023-06-02T00:46:38.476Z,100424.06
2023-06-02T00:49:07.941Z,100418.75
2023-06-02T00:51:36.818Z,100416.31
2023-06-02T00:54:06.834Z,100411.13
2023-06-02T00:56:36.611Z,100422.81
2023-06-02T00:59:05.108Z,100414.06
2023-06-02T01:01:34.902Z,100421.28
2023-06-02T01:06:41.833Z,100415.38
2023-06-02T01:09:13.407Z,100417.38
2023-06-02T01:11:41.959Z,100417.50
2023-06-02T01:14:11.253Z,100417.66
2023-06-02T01:16:40.279Z,100416.88
2023-06-02T01:19:14.555Z,100427.56
2023-06-02T01:21:48.960Z,100428.56
2023-06-02T01:24:21.576Z,100421.47
2023-06-02T01:26:49.781Z,100430.59
2023-06-02T01:29:18.423Z,100429.88
2023-06-02T01:31:51.200Z,100440.69
2023-06-02T01:34:26.757Z,100439.81
2023-06-02T01:36:59.336Z,100439.94
2023-06-02T01:39:29.882Z,100436.56
2023-06-02T01:42:03.250Z,100436.63
2023-06-02T01:44:32.969Z,100445.59
2023-06-02T01:47:01.223Z,100442.06
2023-06-02T01:49:31.678Z,100447.50
2023-06-02T01:52:00.091Z,100443.06
2023-06-02T01:54:30.750Z,100439.69
2023-06-02T01:56:59.511Z,100444.13
2023-06-02T01:59:28.572Z,100442.50
2023-06-02T02:01:56.706Z,100441.69
2023-06-02T02:04:25.411Z,100438.25
2023-06-02T02:06:53.752Z,100444.69
2023-06-02T02:09:22.564Z,100435.88
2023-06-02T02:11:52.140Z,100441.28
2023-06-02T02:14:26.126Z,100446.78
2023-06-02T02:16:55.784Z,100444.09
2023-06-02T02:19:32.432Z,100441.44
2023-06-02T02:22:00.920Z,100441.56
2023-06-02T02:24:29.124Z,100441.66
2023-06-02T02:27:01.575Z,100440.09
2023-06-02T02:29:29.979Z,100444.69
2023-06-02T02:32:01.681Z,100452.81
2023-06-02T02:34:33.861Z,100456.69
2023-06-02T02:37:05.080Z,100459.50
2023-06-02T02:39:33.942Z,100457.19
2023-06-02T02:42:06.529Z,100460.16
2023-06-02T02:44:39.374Z,100463.91
2023-06-02T02:47:08.846Z,100458.81
2023-06-02T02:49:37.035Z,100455.56
2023-06-02T02:52:06.817Z,100459.16
2023-06-02T02:54:35.311Z,100459.16
2023-06-02T02:57:05.321Z,100455.00
2023-06-02T02:59:35.647Z,100452.59
2023-06-02T03:02:04.938Z,100450.94
2023-06-02T03:04:33.582Z,100461.81
2023-06-02T03:07:04.029Z,100459.28
2023-06-02T03:09:32.938Z,100462.09
2023-06-02T03:12:02.559Z,100455.78
2023-06-02T03:14:35.671Z,100451.44
2023-06-02T03:17:08.379Z,100458.63
2023-06-02T03:19:38.993Z,100463.19
2023-06-02T03:22:08.126Z,100460.59
2023-06-02T03:24:38.161Z,100453.59
2023-06-02T03:27:14.567Z,100456.41
2023-06-02T03:29:48.472Z,100458.28
2023-06-02T03:32:20.395Z,100460.94
2023-06-02T03:34:49.919Z,100465.41
2023-06-02T03:37:19.468Z,100461.91
2023-06-02T03:39:49.159Z,100462.72
2023-06-02T03:42:21.297Z,100468.06
2023-06-02T03:44:50.945Z,100465.31
2023-06-02T03:47:19.491Z,100473.25
2023-06-02T03:49:49.699Z,100477.69
2023-06-02T03:52:20.012Z,100480.34
2023-06-02T03:54:54.698Z,100477.69
2023-06-02T03:57:22.896Z,100483.91
2023-06-02T03:59:53.007Z,100482.84
2023-06-02T04:02:27.118Z,100476.78
2023-06-02T04:04:55.526Z,100484.72
2023-06-02T04:07:24.577Z,100474.00
2023-06-02T04:09:55.758Z,100485.44
2023-06-02T04:12:24.754Z,100485.50
2023-06-02T04:14:55.283Z,100486.31
2023-06-02T04:17:24.740Z,100495.13
2023-06-02T04:19:55.460Z,100499.38
2023-06-02T04:22:23.839Z,100493.00
2023-06-02T04:24:52.789Z,100497.19
2023-06-02T04:27:20.927Z,100505.88
2023-06-02T04:29:51.732Z,100499.38
2023-06-02T04:32:22.414Z,100501.66
2023-06-02T04:34:52.520Z,100495.25
2023-06-02T04:37:21.753Z,100514.38
2023-06-02T04:39:50.206Z,100504.19
2023-06-02T04:42:20.803Z,100500.97
2023-06-02T04:44:49.572Z,100508.38
2023-06-02T04:47:18.450Z,100504.47
2023-06-02T04:49:50.756Z,100505.47
2023-06-02T04:52:19.417Z,100508.84
2023-06-02T04:54:49.809Z,100506.75
2023-06-02T04:57:20.536Z,100492.78
2023-06-02T04:59:49.367Z,100510.56
2023-06-02T05:02:18.811Z,100502.00
2023-06-02T05:04:47.021Z,100497.47
2023-06-02T05:07:17.625Z,100500.66
2023-06-02T05:09:45.828Z,100503.13
2023-06-02T05:12:17.536Z,100509.13
2023-06-02T05:14:46.567Z,100511.78
2023-06-02T05:17:24.282Z,100507.13
2023-06-02T05:19:54.880Z,100505.78
2023-06-02T05:22:28.722Z,100510.13
2023-06-02T05:24:57.155Z,100508.13
2023-06-02T05:27:25.398Z,100515.03
2023-06-02T05:29:53.982Z,100508.75
2023-06-02T05:32:25.337Z,100522.31
2023-06-02T05:34:55.575Z,100516.50
2023-06-02T05:37:24.160Z,100514.09
2023-06-02T05:39:55.001Z,100517.44
2023-06-02T05:42:26.607Z,100532.31
2023-06-02T05:44:56.225Z,100519.56
2023-06-02T05:47:24.502Z,100519.81
2023-06-02T05:49:53.239Z,100520.09
2023-06-02T05:52:22.100Z,100520.91
2023-06-02T05:54:55.448Z,100512.31
2023-06-02T05:57:24.250Z,100525.00
2023-06-02T05:59:55.332Z,100522.69
2023-06-02T06:02:23.638Z,100525.91
2023-06-02T06:07:43.767Z,100520.84
2023-06-02T06:10:13.552Z,100525.78
2023-06-02T06:12:42.004Z,100526.91
2023-06-02T06:15:11.207Z,100522.66
2023-06-02T06:17:50.155Z,100529.03
2023-06-02T06:20:18.808Z,100520.31
2023-06-02T06:22:49.128Z,100530.03
2023-06-02T06:25:20.815Z,100518.88
2023-06-02T06:27:51.594Z,100533.06
2023-06-02T06:30:23.156Z,100525.34
2023-06-02T06:32:59.256Z,100531.38
2023-06-02T06:35:29.810Z,100526.22
2023-06-02T06:38:01.657Z,100542.09
2023-06-02T06:40:30.989Z,100544.81
2023-06-02T06:43:03.050Z,100544.34
2023-06-02T06:45:42.978Z,100544.13
2023-06-02T06:48:12.101Z,100546.06
2023-06-02T06:50:40.356Z,100559.66
2023-06-02T06:53:10.515Z,100538.09
2023-06-02T06:55:39.565Z,100546.34
2023-06-02T06:58:07.857Z,100549.41
2023-06-02T07:00:36.099Z,100551.91
2023-06-02T07:03:04.304Z,100533.75
2023-06-02T07:05:32.976Z,100558.19
2023-06-02T07:08:02.352Z,100550.28
2023-06-02T07:10:32.139Z,100561.34
2023-06-02T07:13:03.054Z,100560.00
2023-06-02T07:15:31.221Z,100557.94
2023-06-02T07:17:59.781Z,100567.41
2023-06-02T07:20:28.302Z,100562.28
2023-06-02T07:22:59.412Z,100561.38
2023-06-02T07:25:27.897Z,100568.69
2023-06-02T07:27:57.873Z,100566.28
2023-06-02T07:30:28.730Z,100571.25
2023-06-02T07:32:57.593Z,100570.38
2023-06-02T07:35:25.929Z,100574.44
2023-06-02T07:37:56.026Z,100564.06
2023-06-02T07:40:24.393Z,100574.06
2023-06-02T07:42:52.798Z,100577.31
2023-06-02T07:45:23.013Z,100569.94
2023-06-02T07:47:51.266Z,100557.97
2023-06-02T07:50:20.843Z,100557.59
2023-06-02T07:52:49.526Z,100557.25
2023-06-02T07:55:17.820Z,100563.81
2023-06-02T07:57:46.079Z,100555.03
2023-06-02T08:00:16.324Z,100557.19
2023-06-02T08:02:49.458Z,100564.53
2023-06-02T08:05:18.094Z,100557.34
2023-06-02T08:07:47.490Z,100555.13
2023-06-02T08:10:16.051Z,100543.75
2023-06-02T08:12:44.415Z,100552.47
2023-06-02T08:15:16.031Z,100545.75
2023-06-02T08:17:44.831Z,100543.31
2023-06-02T08:20:17.325Z,100539.22
2023-06-02T08:22:47.385Z,100535.44
2023-06-02T08:25:18.400Z,100526.81
2023-06-02T08:27:46.698Z,100520.84
2023-06-02T08:30:15.739Z,100531.25
2023-06-02T08:32:45.159Z,100533.22
2023-06-02T08:35:15.226Z,100523.75
2023-06-02T08:37:44.383Z,100532.72
2023-06-02T08:40:12.990Z,100515.13
2023-06-02T08:42:41.471Z,100527.09
2023-06-02T08:45:10.776Z,100521.81
2023-06-02T08:47:45.044Z,100521.59
2023-06-02T08:50:14.898Z,100522.34
2023-06-02T08:52:46.555Z,100502.88
2023-06-02T08:55:14.884Z,100517.63
2023-06-02T08:57:46.366Z,100508.31
2023-06-02T09:00:18.472Z,100508.53
2023-06-02T09:02:48.953Z,100516.44
2023-06-02T09:05:21.570Z,100503.88
2023-06-02T09:07:50.873Z,100516.19
2023-06-02T09:10:30.820Z,100519.97
2023-06-02T09:13:00.215Z,100521.28
2023-06-02T09:15:28.492Z,100522.56
2023-06-02T09:18:11.799Z,100516.19
2023-06-02T09:20:42.114Z,100521.00
2023-06-02T09:23:10.318Z,100522.28
2023-06-02T09:25:41.856Z,100517.66
2023-06-02T09:28:10.783Z,100510.47
2023-06-02T09:30:39.264Z,100517.91
2023-06-02T09:33:10.250Z,100515.06
2023-06-02T09:35:43.286Z,100519.94
2023-06-02T09:38:13.291Z,100509.19
2023-06-02T09:40:42.818Z,100508.78
2023-06-02T09:43:13.835Z,100519.13
2023-06-02T09:46:02.294Z,100507.00
2023-06-02T09:48:36.522Z,100514.53
2023-06-02T09:51:23.196Z,100513.81
2023-06-02T09:53:52.061Z,100507.63
2023-06-02T09:56:22.389Z,100505.56
2023-06-02T09:58:53.152Z,100517.56
2023-06-02T10:01:21.512Z,100509.53
2023-06-02T10:03:49.948Z,100504.84
2023-06-02T10:06:29.374Z,100502.84
2023-06-02T10:09:12.180Z,100517.50
2023-06-02T10:11:51.212Z,100511.94
2023-06-02T10:14:39.590Z,100508.97
2023-06-02T10:17:21.530Z,100519.53
2023-06-02T10:20:09.326Z,100511.78
2023-06-02T10:22:53.600Z,100498.34
2023-06-02T10:25:31.367Z,100507.25
2023-06-02T10:28:03.101Z,100518.31
2023-06-02T10:30:31.645Z,100505.06
2023-06-02T10:33:00.053Z,100519.34
2023-06-02T10:35:59.712Z,100505.66
2023-06-02T10:38:33.130Z,100507.50
2023-06-02T10:41:03.083Z,100504.09
2023-06-02T10:43:35.644Z,100494.03
2023-06-02T10:46:17.818Z,100510.09
2023-06-02T10:48:49.435Z,100496.06
2023-06-02T10:51:19.081Z,100496.22
2023-06-02T10:54:17.513Z,100506.06
2023-06-02T10:56:47.241Z,100497.84
2023-06-02T10:59:37.520Z,100496.38
2023-06-02T11:02:06.982Z,100497.56
2023-06-02T11:08:29.054Z,100495.28
2023-06-02T11:11:01.686Z,100496.75
2023-06-02T11:13:30.914Z,100493.81
2023-06-02T11:16:17.603Z,100496.63
2023-06-02T11:18:46.315Z,100494.16
2023-06-02T11:21:19.373Z,100476.28
2023-06-02T11:23:49.707Z,100489.09
2023-06-02T11:26:20.574Z,100486.41
2023-06-02T11:28:48.930Z,100489.91
2023-06-02T11:31:18.457Z,100482.88
2023-06-02T11:33:49.389Z,100484.63
2023-06-02T11:36:29.093Z,100482.81
2023-06-02T11:39:05.076Z,100485.00
2023-06-02T11:41:34.145Z,100477.09
2023-06-02T11:44:07.152Z,100482.38
2023-06-02T11:46:38.817Z,100473.69
2023-06-02T11:49:07.053Z,100477.84
2023-06-02T11:51:35.865Z,100463.31
2023-06-02T11:54:08.637Z,100471.25
2023-06-02T11:56:37.514Z,100478.03
2023-06-02T11:59:05.932Z,100473.59
2023-06-02T12:01:35.514Z,100478.41
2023-06-02T12:04:06.581Z,100472.78
2023-06-02T12:06:36.309Z,100470.94
2023-06-02T12:09:13.755Z,100464.66
2023-06-02T12:11:42.396Z,100460.13
2023-06-02T12:14:12.090Z,100457.78
2023-06-02T12:16:45.145Z,100465.41
2023-06-02T12:19:15.097Z,100464.31
2023-06-02T12:21:47.858Z,100455.09
2023-06-02T12:24:35.045Z,100453.59
2023-06-02T12:27:05.058Z,100456.16
2023-06-02T12:29:34.630Z,100456.53
2023-06-02T12:32:05.165Z,100452.59
2023-06-02T12:34:33.852Z,100444.84
2023-06-02T12:37:05.194Z,100445.66
2023-06-02T12:39:35.556Z,100444.22
2023-06-02T12:42:03.994Z,100445.09
2023-06-02T12:44:32.377Z,100440.16
2023-06-02T12:47:00.853Z,100446.22
2023-06-02T12:49:29.104Z,100442.63
2023-06-02T12:51:58.033Z,100440.66
2023-06-02T12:54:26.330Z,100436.69
2023-06-02T12:56:59.218Z,100433.25
2023-06-02T12:59:27.600Z,100438.53
2023-06-02T13:01:58.130Z,100437.75
2023-06-02T13:04:26.615Z,100438.72
2023-06-02T13:06:55.240Z,100440.22
2023-06-02T13:09:23.528Z,100435.16
2023-06-02T13:11:53.499Z,100434.91
2023-06-02T13:14:23.680Z,100436.91
2023-06-02T13:16:52.303Z,100438.13
2023-06-02T13:19:21.335Z,100436.41
2023-06-02T13:21:49.822Z,100443.88
2023-06-02T13:24:18.736Z,100429.28
2023-06-02T13:26:49.608Z,100439.41
2023-06-02T13:29:18.151Z,100425.31
2023-06-02T13:31:48.006Z,100430.28
2023-06-02T13:34:16.256Z,100423.59
2023-06-02T13:36:45.941Z,100431.03
2023-06-02T13:39:14.277Z,100427.03
2023-06-02T13:41:42.492Z,100425.59
2023-06-02T13:44:13.102Z,100431.91
2023-06-02T13:46:41.559Z,100424.84
2023-06-02T13:49:13.291Z,100420.53
2023-06-02T13:51:45.081Z,100419.28
2023-06-02T13:54:13.322Z,100413.63
2023-06-02T13:56:41.618Z,100413.50
2023-06-02T13:59:09.799Z,100407.56
2023-06-02T14:01:38.248Z,100406.59
2023-06-02T14:04:07.654Z,100411.03
2023-06-02T14:06:37.290Z,100407.91
2023-06-02T14:09:09.418Z,100409.13
2023-06-02T14:11:39.930Z,100404.06
2023-06-02T14:14:08.768Z,100410.41
2023-06-02T14:16:37.182Z,100405.56
2023-06-02T14:19:06.571Z,100397.91
2023-06-02T14:21:38.452Z,100408.88
2023-06-02T14:24:07.718Z,100407.69
2023-06-02T14:26:36.186Z,100407.56
2023-06-02T14:29:04.863Z,100401.28
2023-06-02T14:31:33.198Z,100406.91
2023-06-02T14:34:01.821Z,100405.03
2023-06-02T14:36:30.108Z,100402.31
2023-06-02T14:38:59.695Z,100400.25
2023-06-02T14:41:28.133Z,100399.03
2023-06-02T14:43:56.421Z,100395.19
2023-06-02T14:46:24.718Z,100406.25
2023-06-02T14:48:53.105Z,100397.00
2023-06-02T14:51:23.873Z,100391.84
2023-06-02T14:53:52.547Z,100388.66
2023-06-02T14:56:22.273Z,100379.78
2023-06-02T14:59:06.654Z,100390.88
2023-06-02T15:01:38.989Z,100378.72
2023-06-02T15:04:07.654Z,100378.88
2023-06-02T15:06:37.283Z,100376.72
2023-06-02T15:09:05.683Z,100363.09
2023-06-02T15:11:35.719Z,100374.94
2023-06-02T15:14:04.092Z,100374.19
2023-06-02T15:16:35.890Z,100365.56
2023-06-02T15:19:04.166Z,100367.56
2023-06-02T15:21:33.696Z,100366.78
2023-06-02T15:24:02.756Z,100365.59
2023-06-02T15:26:31.123Z,100360.63
2023-06-02T15:29:00.884Z,100358.66
2023-06-02T15:31:29.354Z,100358.06
2023-06-02T15:33:57.740Z,100355.94
2023-06-02T15:36:30.776Z,100354.72
2023-06-02T15:38:59.010Z,100357.06
2023-06-02T15:41:27.448Z,100351.53
2023-06-02T15:43:55.991Z,100349.75
2023-06-02T15:46:26.492Z,100346.69
2023-06-02T15:48:55.025Z,100351.38
2023-06-02T15:51:26.383Z,100337.94
2023-06-02T15:53:54.708Z,100336.59
2023-06-02T15:56:22.966Z,100326.31
2023-06-02T15:58:51.289Z,100333.75
2023-06-02T16:01:20.082Z,100332.03
2023-06-02T16:03:52.539Z,100330.16
2023-06-02T16:08:50.827Z,100332.88
2023-06-02T16:11:19.177Z,100324.94
2023-06-02T16:13:47.337Z,100326.94
2023-06-02T16:16:15.776Z,100328.66
2023-06-02T16:18:44.006Z,100331.03
2023-06-02T16:21:12.213Z,100316.81
2023-06-02T16:23:40.412Z,100333.63
2023-06-02T16:26:14.011Z,100316.72
2023-06-02T16:28:42.788Z,100332.38
2023-06-02T16:31:11.329Z,100329.41
2023-06-02T16:33:39.901Z,100325.97
2023-06-02T16:36:11.701Z,100316.84
2023-06-02T16:38:41.974Z,100315.75
2023-06-02T16:41:10.224Z,100314.25
2023-06-02T16:43:39.932Z,100313.13
2023-06-02T16:46:08.733Z,100315.84
2023-06-02T16:48:37.340Z,100313.50
2023-06-02T16:51:08.180Z,100306.34
2023-06-02T16:53:38.959Z,100308.19
2023-06-02T16:56:07.816Z,100317.22
2023-06-02T16:58:36.979Z,100317.69
2023-06-02T17:01:07.457Z,100316.31
2023-06-02T17:03:36.008Z,100311.03
2023-06-02T17:06:06.714Z,100314.09
2023-06-02T17:08:34.905Z,100313.50
2023-06-02T17:11:03.252Z,100310.53
2023-06-02T17:13:34.198Z,100316.06
2023-06-02T17:16:03.040Z,100316.69
2023-06-02T17:18:33.347Z,100321.50
2023-06-02T17:21:01.568Z,100310.75
2023-06-02T17:23:29.775Z,100317.63
2023-06-02T17:25:58.975Z,100312.34
2023-06-02T17:28:27.236Z,100316.22
2023-06-02T17:30:55.563Z,100319.53
2023-06-02T17:33:26.489Z,100321.38
2023-06-02T17:35:55.994Z,100318.03
2023-06-02T17:38:26.777Z,100322.34
2023-06-02T17:40:55.184Z,100320.75
2023-06-02T17:43:24.078Z,100327.03
2023-06-02T17:45:52.518Z,100325.28
2023-06-02T17:48:20.675Z,100328.50
2023-06-02T17:50:49.010Z,100323.91
2023-06-02T17:53:19.088Z,100321.19
2023-06-02T17:55:47.716Z,100318.50
2023-06-02T17:58:15.957Z,100319.34
2023-06-02T18:00:44.409Z,100321.47
2023-06-02T18:03:13.250Z,100318.13
2023-06-02T18:05:41.618Z,100320.19
2023-06-02T18:08:10.075Z,100316.97
2023-06-02T18:10:39.630Z,100306.19
2023-06-02T18:13:10.562Z,100324.69
2023-06-02T18:15:39.218Z,100326.75
2023-06-02T18:18:07.873Z,100329.72
2023-06-02T18:20:36.442Z,100329.31
2023-06-02T18:23:04.813Z,100327.56
2023-06-02T18:25:34.029Z,100327.06
2023-06-02T18:28:05.932Z,100323.94
2023-06-02T18:30:34.661Z,100329.91
2023-06-02T18:33:03.362Z,100330.59
2023-06-02T18:35:31.676Z,100317.53
2023-06-02T18:37:59.926Z,100335.69
2023-06-02T18:40:29.305Z,100328.88
2023-06-02T18:42:57.679Z,100328.47
2023-06-02T18:45:27.288Z,100328.78
2023-06-02T18:47:55.758Z,100337.34
2023-06-02T18:50:24.152Z,100330.75
2023-06-02T18:52:52.697Z,100341.91
2023-06-02T18:55:25.030Z,100318.03
2023-06-02T18:57:55.405Z,100340.63
2023-06-02T19:00:23.634Z,100350.25
2023-06-02T19:02:53.591Z,100344.75
2023-06-02T19:05:21.993Z,100356.66
2023-06-02T19:07:50.462Z,100358.91
2023-06-02T19:10:19.052Z,100361.16
2023-06-02T19:12:47.667Z,100364.19
2023-06-02T19:15:15.918Z,100362.97
2023-06-02T19:17:44.338Z,100364.03
2023-06-02T19:20:15.418Z,100362.50
2023-06-02T19:22:47.262Z,100366.47
2023-06-02T19:25:15.922Z,100369.59
2023-06-02T19:27:44.251Z,100358.56
2023-06-02T19:30:13.993Z,100369.44
2023-06-02T19:32:45.725Z,100379.16
2023-06-02T19:35:18.454Z,100379.34
2023-06-02T19:37:46.966Z,100375.41
2023-06-02T19:40:15.386Z,100377.88
2023-06-02T19:42:43.774Z,100386.81
2023-06-02T19:45:12.360Z,100385.88
2023-06-02T19:47:41.075Z,100389.75
2023-06-02T19:50:10.346Z,100388.75
2023-06-02T19:52:39.992Z,100389.06
2023-06-02T19:55:09.029Z,100387.53
2023-06-02T19:57:37.822Z,100398.44
2023-06-02T20:00:08.630Z,100392.28
2023-06-02T20:02:36.986Z,100385.44
2023-06-02T20:05:11.180Z,100392.13
2023-06-02T20:07:41.481Z,100396.91
2023-06-02T20:10:11.364Z,100398.16
2023-06-02T20:12:39.547Z,100406.38
2023-06-02T20:15:10.780Z,100409.31
2023-06-02T20:17:39.297Z,100411.44
2023-06-02T20:20:12.064Z,100412.13
2023-06-02T20:22:42.691Z,100423.97
2023-06-02T20:25:13.192Z,100423.59
2023-06-02T20:27:42.459Z,100431.09
2023-06-02T20:30:11.217Z,100434.38
2023-06-02T20:32:41.989Z,100435.41
2023-06-02T20:35:12.919Z,100438.00
2023-06-02T20:37:42.528Z,100441.69
2023-06-02T20:40:11.400Z,100437.63
2023-06-02T20:42:39.500Z,100436.75
2023-06-02T20:45:10.017Z,100427.59
2023-06-02T20:47:38.688Z,100433.06
2023-06-02T20:50:08.639Z,100444.91
2023-06-02T20:52:36.945Z,100438.22
2023-06-02T20:55:07.146Z,100441.97
2023-06-02T20:57:35.265Z,100445.03
2023-06-02T21:00:05.952Z,100448.94
2023-06-02T21:02:34.335Z,100450.78
2023-06-02T21:05:02.566Z,100446.97
2023-06-02T21:09:51.309Z,100446.88
2023-06-02T21:12:19.672Z,100454.53
2023-06-02T21:14:47.791Z,100453.28
2023-06-02T21:17:16.228Z,100454.44
2023-06-02T21:19:44.348Z,100454.69
2023-06-02T21:22:12.449Z,100458.00
2023-06-02T21:24:40.768Z,100464.34
2023-06-02T21:27:10.444Z,100467.56
2023-06-02T21:29:43.379Z,100468.66
2023-06-02T21:32:12.125Z,100472.91
2023-06-02T21:34:40.495Z,100472.22
2023-06-02T21:37:08.985Z,100478.88
2023-06-02T21:39:37.597Z,100473.81
2023-06-02T21:42:10.862Z,100481.91
2023-06-02T21:44:41.538Z,100477.56
2023-06-02T21:47:09.688Z,100473.53
2023-06-02T21:49:40.329Z,100485.34
2023-06-02T21:52:08.602Z,100483.84
2023-06-02T21:54:40.109Z,100490.03
2023-06-02T21:57:12.291Z,100486.84
2023-06-02T21:59:42.436Z,100492.75
2023-06-02T22:02:31.297Z,100492.19
2023-06-02T22:04:59.631Z,100493.19
2023-06-02T22:07:27.700Z,100489.72
2023-06-02T22:09:56.253Z,100496.13
2023-06-02T22:12:30.640Z,100498.88
2023-06-02T22:14:58.875Z,100499.19
2023-06-02T22:17:27.071Z,100494.63
2023-06-02T22:19:55.500Z,100493.91
2023-06-02T22:22:23.922Z,100495.72
2023-06-02T22:24:54.292Z,100497.78
2023-06-02T22:27:22.415Z,100500.47
2023-06-02T22:29:56.451Z,100489.91
2023-06-02T22:32:24.700Z,100492.78
2023-06-02T22:34:52.856Z,100491.28
2023-06-02T22:37:21.021Z,100495.94
2023-06-02T22:39:49.213Z,100493.47
2023-06-02T22:42:21.414Z,100499.16
2023-06-02T22:44:52.398Z,100491.63
2023-06-02T22:47:24.314Z,100492.66
2023-06-02T22:49:52.619Z,100486.47
2023-06-02T22:52:20.790Z,100490.50
2023-06-02T22:54:48.885Z,100469.91
2023-06-02T22:57:16.901Z,100484.72
2023-06-02T22:59:47.340Z,100484.03
2023-06-02T23:02:15.472Z,100485.94
2023-06-02T23:04:45.149Z,100493.13
2023-06-02T23:07:13.397Z,100487.41
2023-06-02T23:09:41.834Z,100493.56
2023-06-02T23:12:10.520Z,100488.41
2023-06-02T23:14:38.608Z,100481.53
2023-06-02T23:17:08.986Z,100491.63
2023-06-02T23:19:37.094Z,100488.28
2023-06-02T23:22:06.942Z,100481.31
2023-06-02T23:24:35.088Z,100485.91
2023-06-02T23:27:03.501Z,100487.16
2023-06-02T23:29:34.121Z,100486.41
2023-06-02T23:32:04.870Z,100476.84
2023-06-02T23:34:33.481Z,100468.13
2023-06-02T23:37:01.604Z,100474.50
2023-06-02T23:39:31.182Z,100478.13
2023-06-02T23:42:01.548Z,100472.84
2023-06-02T23:44:29.692Z,100478.34
2023-06-02T23:47:00.371Z,100475.88
2023-06-02T23:49:28.482Z,100474.25
2023-06-02T23:51:56.579Z,100470.94
2023-06-02T23:54:25.118Z,100468.38
2023-06-02T23:56:56.928Z,100467.63
2023-06-02T23:59:25.178Z,100471.34
